sensor_id;sensor_type;location;lat;lon;timestamp;P1;durP1;ratioP1;P2;durP2;ratioP2
38513;SDS011;24282;48.400;10.808;2022-07-10T00:01:52;3.58;;;2.05;;
38513;SDS011;24282;48.400;10.808;2022-07-10T00:04:17;2.53;;;1.70;;
38513;SDS011;24282;48.400;10.808;2022-07-10T00:06:46;2.63;;;1.75;;
38513;SDS011;24282;48.400;10.808;2022-07-10T00:09:12;2.42;;;1.73;;
38513;SDS011;24282;48.400;10.808;2022-07-10T00:11:39;3.55;;;1.90;;
38513;SDS011;24282;48.400;10.808;2022-07-10T00:14:05;2.60;;;2.05;;
38513;SDS011;24282;48.400;10.808;2022-07-10T00:16:31;2.67;;;2.03;;
38513;SDS011;24282;48.400;10.808;2022-07-10T00:18:57;3.05;;;1.80;;
38513;SDS011;24282;48.400;10.808;2022-07-10T00:21:23;3.70;;;2.05;;
38513;SDS011;24282;48.400;10.808;2022-07-10T00:23:49;1.98;;;1.58;;
38513;SDS011;24282;48.400;10.808;2022-07-10T00:26:14;3.05;;;1.90;;
38513;SDS011;24282;48.400;10.808;2022-07-10T00:28:40;2.83;;;1.85;;
38513;SDS011;24282;48.400;10.808;2022-07-10T00:31:06;2.15;;;1.90;;
38513;SDS011;24282;48.400;10.808;2022-07-10T00:33:32;2.45;;;2.00;;
38513;SDS011;24282;48.400;10.808;2022-07-10T00:35:58;2.78;;;1.80;;
38513;SDS011;24282;48.400;10.808;2022-07-10T00:38:24;3.92;;;1.85;;
38513;SDS011;24282;48.400;10.808;2022-07-10T00:40:50;2.28;;;1.90;;
38513;SDS011;24282;48.400;10.808;2022-07-10T00:43:16;2.05;;;1.85;;
38513;SDS011;24282;48.400;10.808;2022-07-10T00:45:41;1.98;;;1.65;;
38513;SDS011;24282;48.400;10.808;2022-07-10T00:48:07;2.60;;;1.70;;
38513;SDS011;24282;48.400;10.808;2022-07-10T00:50:34;2.88;;;2.00;;
38513;SDS011;24282;48.400;10.808;2022-07-10T00:53:00;3.47;;;1.92;;
38513;SDS011;24282;48.400;10.808;2022-07-10T00:55:28;2.90;;;2.05;;
38513;SDS011;24282;48.400;10.808;2022-07-10T00:57:55;3.72;;;1.80;;
38513;SDS011;24282;48.400;10.808;2022-07-10T01:00:21;2.92;;;2.08;;
38513;SDS011;24282;48.400;10.808;2022-07-10T01:02:47;2.60;;;2.00;;
38513;SDS011;24282;48.400;10.808;2022-07-10T01:05:13;2.47;;;1.77;;
38513;SDS011;24282;48.400;10.808;2022-07-10T01:07:39;2.83;;;1.95;;
38513;SDS011;24282;48.400;10.808;2022-07-10T01:10:05;3.42;;;2.25;;
38513;SDS011;24282;48.400;10.808;2022-07-10T01:12:31;2.92;;;1.90;;
38513;SDS011;24282;48.400;10.808;2022-07-10T01:14:58;5.32;;;2.50;;
38513;SDS011;24282;48.400;10.808;2022-07-10T01:17:24;2.20;;;1.80;;
38513;SDS011;24282;48.400;10.808;2022-07-10T01:19:51;2.47;;;1.95;;
38513;SDS011;24282;48.400;10.808;2022-07-10T01:22:17;2.97;;;2.05;;
38513;SDS011;24282;48.400;10.808;2022-07-10T01:24:42;2.75;;;2.03;;
38513;SDS011;24282;48.400;10.808;2022-07-10T01:27:08;4.20;;;2.15;;
38513;SDS011;24282;48.400;10.808;2022-07-10T01:29:34;2.75;;;1.98;;
38513;SDS011;24282;48.400;10.808;2022-07-10T01:32:01;2.42;;;2.05;;
38513;SDS011;24282;48.400;10.808;2022-07-10T01:34:27;2.85;;;1.88;;
38513;SDS011;24282;48.400;10.808;2022-07-10T01:36:53;4.00;;;2.03;;
38513;SDS011;24282;48.400;10.808;2022-07-10T01:39:19;3.28;;;2.40;;
38513;SDS011;24282;48.400;10.808;2022-07-10T01:41:45;3.97;;;2.50;;
38513;SDS011;24282;48.400;10.808;2022-07-10T01:44:11;2.83;;;2.33;;
38513;SDS011;24282;48.400;10.808;2022-07-10T01:46:42;2.15;;;1.73;;
38513;SDS011;24282;48.400;10.808;2022-07-10T01:49:09;2.28;;;1.90;;
38513;SDS011;24282;48.400;10.808;2022-07-10T01:51:35;3.10;;;2.30;;
38513;SDS011;24282;48.400;10.808;2022-07-10T01:54:01;2.92;;;2.15;;
38513;SDS011;24282;48.400;10.808;2022-07-10T01:56:27;2.80;;;2.10;;
38513;SDS011;24282;48.400;10.808;2022-07-10T01:58:53;2.67;;;1.90;;
38513;SDS011;24282;48.400;10.808;2022-07-10T02:01:18;2.83;;;1.73;;
38513;SDS011;24282;48.400;10.808;2022-07-10T02:03:44;2.30;;;1.95;;
38513;SDS011;24282;48.400;10.808;2022-07-10T02:06:29;2.78;;;1.98;;
38513;SDS011;24282;48.400;10.808;2022-07-10T02:08:55;2.28;;;1.80;;
38513;SDS011;24282;48.400;10.808;2022-07-10T02:11:20;2.58;;;1.85;;
38513;SDS011;24282;48.400;10.808;2022-07-10T02:13:46;2.80;;;2.00;;
38513;SDS011;24282;48.400;10.808;2022-07-10T02:16:12;2.97;;;2.00;;
38513;SDS011;24282;48.400;10.808;2022-07-10T02:18:39;3.28;;;1.75;;
38513;SDS011;24282;48.400;10.808;2022-07-10T02:21:05;3.22;;;2.35;;
38513;SDS011;24282;48.400;10.808;2022-07-10T02:23:32;1.98;;;1.67;;
38513;SDS011;24282;48.400;10.808;2022-07-10T02:25:58;2.78;;;1.92;;
38513;SDS011;24282;48.400;10.808;2022-07-10T02:28:24;1.60;;;1.48;;
38513;SDS011;24282;48.400;10.808;2022-07-10T02:30:50;2.35;;;1.83;;
38513;SDS011;24282;48.400;10.808;2022-07-10T02:33:16;3.08;;;2.40;;
38513;SDS011;24282;48.400;10.808;2022-07-10T02:35:42;2.60;;;2.17;;
38513;SDS011;24282;48.400;10.808;2022-07-10T02:38:08;3.25;;;2.13;;
38513;SDS011;24282;48.400;10.808;2022-07-10T02:40:34;3.55;;;2.20;;
38513;SDS011;24282;48.400;10.808;2022-07-10T02:42:59;3.00;;;2.33;;
38513;SDS011;24282;48.400;10.808;2022-07-10T02:45:25;3.03;;;2.20;;
38513;SDS011;24282;48.400;10.808;2022-07-10T02:47:51;3.38;;;2.22;;
38513;SDS011;24282;48.400;10.808;2022-07-10T02:50:17;2.88;;;2.00;;
38513;SDS011;24282;48.400;10.808;2022-07-10T02:52:43;3.97;;;2.22;;
38513;SDS011;24282;48.400;10.808;2022-07-10T02:55:09;3.40;;;1.85;;
38513;SDS011;24282;48.400;10.808;2022-07-10T02:57:35;3.38;;;2.20;;
38513;SDS011;24282;48.400;10.808;2022-07-10T03:00:00;2.67;;;1.90;;
38513;SDS011;24282;48.400;10.808;2022-07-10T03:02:26;2.97;;;2.03;;
38513;SDS011;24282;48.400;10.808;2022-07-10T03:04:52;2.63;;;2.03;;
38513;SDS011;24282;48.400;10.808;2022-07-10T03:07:18;3.35;;;2.45;;
38513;SDS011;24282;48.400;10.808;2022-07-10T03:09:44;2.88;;;2.47;;
38513;SDS011;24282;48.400;10.808;2022-07-10T03:12:10;3.78;;;2.20;;
38513;SDS011;24282;48.400;10.808;2022-07-10T03:14:35;3.30;;;2.38;;
38513;SDS011;24282;48.400;10.808;2022-07-10T03:17:01;3.55;;;2.42;;
38513;SDS011;24282;48.400;10.808;2022-07-10T03:19:27;3.08;;;2.17;;
38513;SDS011;24282;48.400;10.808;2022-07-10T03:21:53;3.40;;;2.35;;
38513;SDS011;24282;48.400;10.808;2022-07-10T03:24:19;2.95;;;2.25;;
38513;SDS011;24282;48.400;10.808;2022-07-10T03:26:45;3.40;;;2.53;;
38513;SDS011;24282;48.400;10.808;2022-07-10T03:29:11;3.90;;;2.78;;
38513;SDS011;24282;48.400;10.808;2022-07-10T03:31:37;4.05;;;3.00;;
38513;SDS011;24282;48.400;10.808;2022-07-10T03:34:02;4.03;;;2.85;;
38513;SDS011;24282;48.400;10.808;2022-07-10T03:36:28;5.22;;;3.28;;
38513;SDS011;24282;48.400;10.808;2022-07-10T03:38:54;3.33;;;2.80;;
38513;SDS011;24282;48.400;10.808;2022-07-10T03:41:20;4.05;;;3.13;;
38513;SDS011;24282;48.400;10.808;2022-07-10T03:43:45;4.25;;;3.35;;
38513;SDS011;24282;48.400;10.808;2022-07-10T03:46:11;3.88;;;3.20;;
38513;SDS011;24282;48.400;10.808;2022-07-10T03:48:37;4.75;;;3.10;;
38513;SDS011;24282;48.400;10.808;2022-07-10T03:51:03;4.55;;;3.42;;
38513;SDS011;24282;48.400;10.808;2022-07-10T03:53:32;3.72;;;3.00;;
38513;SDS011;24282;48.400;10.808;2022-07-10T03:55:58;6.75;;;2.92;;
38513;SDS011;24282;48.400;10.808;2022-07-10T03:58:25;3.80;;;3.28;;
38513;SDS011;24282;48.400;10.808;2022-07-10T04:00:51;4.00;;;3.15;;
38513;SDS011;24282;48.400;10.808;2022-07-10T04:03:17;4.38;;;3.55;;
38513;SDS011;24282;48.400;10.808;2022-07-10T04:05:43;4.43;;;3.50;;
38513;SDS011;24282;48.400;10.808;2022-07-10T04:08:09;4.57;;;4.03;;
38513;SDS011;24282;48.400;10.808;2022-07-10T04:10:35;5.35;;;3.80;;
38513;SDS011;24282;48.400;10.808;2022-07-10T04:13:01;4.55;;;3.80;;
38513;SDS011;24282;48.400;10.808;2022-07-10T04:15:27;4.63;;;3.78;;
38513;SDS011;24282;48.400;10.808;2022-07-10T04:17:53;3.75;;;3.30;;
38513;SDS011;24282;48.400;10.808;2022-07-10T04:20:20;4.63;;;4.07;;
38513;SDS011;24282;48.400;10.808;2022-07-10T04:22:46;4.40;;;4.00;;
38513;SDS011;24282;48.400;10.808;2022-07-10T04:25:12;9.02;;;4.90;;
38513;SDS011;24282;48.400;10.808;2022-07-10T04:27:39;4.40;;;3.83;;
38513;SDS011;24282;48.400;10.808;2022-07-10T04:30:05;5.32;;;4.47;;
38513;SDS011;24282;48.400;10.808;2022-07-10T04:32:31;4.45;;;4.05;;
38513;SDS011;24282;48.400;10.808;2022-07-10T04:34:57;4.60;;;3.80;;
38513;SDS011;24282;48.400;10.808;2022-07-10T04:37:24;4.95;;;3.97;;
38513;SDS011;24282;48.400;10.808;2022-07-10T04:39:49;5.53;;;3.65;;
38513;SDS011;24282;48.400;10.808;2022-07-10T04:42:15;5.05;;;3.80;;
38513;SDS011;24282;48.400;10.808;2022-07-10T04:44:41;5.20;;;3.70;;
38513;SDS011;24282;48.400;10.808;2022-07-10T04:47:07;4.53;;;4.13;;
38513;SDS011;24282;48.400;10.808;2022-07-10T04:49:33;5.25;;;4.43;;
38513;SDS011;24282;48.400;10.808;2022-07-10T04:51:59;7.35;;;4.53;;
38513;SDS011;24282;48.400;10.808;2022-07-10T04:54:25;4.18;;;3.75;;
38513;SDS011;24282;48.400;10.808;2022-07-10T04:56:51;5.32;;;4.82;;
38513;SDS011;24282;48.400;10.808;2022-07-10T04:59:17;6.63;;;4.82;;
38513;SDS011;24282;48.400;10.808;2022-07-10T05:01:43;5.63;;;4.20;;
38513;SDS011;24282;48.400;10.808;2022-07-10T05:04:09;5.07;;;4.57;;
38513;SDS011;24282;48.400;10.808;2022-07-10T05:06:35;5.82;;;4.75;;
38513;SDS011;24282;48.400;10.808;2022-07-10T05:09:01;5.43;;;4.72;;
38513;SDS011;24282;48.400;10.808;2022-07-10T05:11:27;6.88;;;4.32;;
38513;SDS011;24282;48.400;10.808;2022-07-10T05:13:54;4.38;;;3.65;;
38513;SDS011;24282;48.400;10.808;2022-07-10T05:16:20;5.15;;;4.35;;
38513;SDS011;24282;48.400;10.808;2022-07-10T05:18:46;5.85;;;4.30;;
38513;SDS011;24282;48.400;10.808;2022-07-10T05:21:11;5.95;;;4.47;;
38513;SDS011;24282;48.400;10.808;2022-07-10T05:23:37;4.63;;;3.97;;
38513;SDS011;24282;48.400;10.808;2022-07-10T05:26:04;4.65;;;3.83;;
38513;SDS011;24282;48.400;10.808;2022-07-10T05:28:30;4.88;;;3.90;;
38513;SDS011;24282;48.400;10.808;2022-07-10T05:30:56;5.70;;;4.25;;
38513;SDS011;24282;48.400;10.808;2022-07-10T05:33:22;4.32;;;3.55;;
38513;SDS011;24282;48.400;10.808;2022-07-10T05:35:48;7.18;;;4.25;;
38513;SDS011;24282;48.400;10.808;2022-07-10T05:38:14;4.72;;;3.70;;
38513;SDS011;24282;48.400;10.808;2022-07-10T05:40:40;6.03;;;4.18;;
38513;SDS011;24282;48.400;10.808;2022-07-10T05:43:06;3.72;;;3.28;;
38513;SDS011;24282;48.400;10.808;2022-07-10T05:45:31;5.03;;;3.22;;
38513;SDS011;24282;48.400;10.808;2022-07-10T05:47:57;4.53;;;3.10;;
38513;SDS011;24282;48.400;10.808;2022-07-10T05:50:23;4.32;;;3.03;;
38513;SDS011;24282;48.400;10.808;2022-07-10T05:52:49;4.15;;;2.85;;
38513;SDS011;24282;48.400;10.808;2022-07-10T05:55:15;4.20;;;2.88;;
38513;SDS011;24282;48.400;10.808;2022-07-10T05:57:41;3.88;;;2.42;;
38513;SDS011;24282;48.400;10.808;2022-07-10T06:00:07;3.65;;;2.38;;
38513;SDS011;24282;48.400;10.808;2022-07-10T06:02:39;4.50;;;2.63;;
38513;SDS011;24282;48.400;10.808;2022-07-10T06:05:05;6.53;;;2.53;;
38513;SDS011;24282;48.400;10.808;2022-07-10T06:07:32;4.15;;;2.72;;
38513;SDS011;24282;48.400;10.808;2022-07-10T06:09:58;5.03;;;2.30;;
38513;SDS011;24282;48.400;10.808;2022-07-10T06:12:24;3.30;;;2.30;;
38513;SDS011;24282;48.400;10.808;2022-07-10T06:14:50;4.32;;;2.20;;
38513;SDS011;24282;48.400;10.808;2022-07-10T06:17:15;3.28;;;2.10;;
38513;SDS011;24282;48.400;10.808;2022-07-10T06:19:41;2.80;;;2.00;;
38513;SDS011;24282;48.400;10.808;2022-07-10T06:22:07;4.93;;;2.47;;
38513;SDS011;24282;48.400;10.808;2022-07-10T06:24:52;3.58;;;1.98;;
38513;SDS011;24282;48.400;10.808;2022-07-10T06:27:17;2.85;;;1.52;;
38513;SDS011;24282;48.400;10.808;2022-07-10T06:29:43;4.72;;;2.10;;
38513;SDS011;24282;48.400;10.808;2022-07-10T06:32:09;3.53;;;2.15;;
38513;SDS011;24282;48.400;10.808;2022-07-10T06:34:35;5.05;;;2.10;;
38513;SDS011;24282;48.400;10.808;2022-07-10T06:37:01;4.40;;;2.17;;
38513;SDS011;24282;48.400;10.808;2022-07-10T06:39:27;4.13;;;1.80;;
38513;SDS011;24282;48.400;10.808;2022-07-10T06:41:58;3.97;;;2.17;;
38513;SDS011;24282;48.400;10.808;2022-07-10T06:44:26;3.25;;;1.75;;
38513;SDS011;24282;48.400;10.808;2022-07-10T06:46:52;4.70;;;2.00;;
38513;SDS011;24282;48.400;10.808;2022-07-10T06:49:36;4.93;;;1.73;;
38513;SDS011;24282;48.400;10.808;2022-07-10T06:52:02;3.03;;;1.92;;
38513;SDS011;24282;48.400;10.808;2022-07-10T06:54:28;2.22;;;1.65;;
38513;SDS011;24282;48.400;10.808;2022-07-10T06:56:54;4.10;;;2.20;;
38513;SDS011;24282;48.400;10.808;2022-07-10T06:59:20;2.58;;;1.52;;
38513;SDS011;24282;48.400;10.808;2022-07-10T07:01:46;3.58;;;1.80;;
38513;SDS011;24282;48.400;10.808;2022-07-10T07:04:11;3.17;;;1.50;;
38513;SDS011;24282;48.400;10.808;2022-07-10T07:06:37;3.00;;;1.42;;
38513;SDS011;24282;48.400;10.808;2022-07-10T07:09:03;3.28;;;1.75;;
38513;SDS011;24282;48.400;10.808;2022-07-10T07:11:29;2.80;;;1.75;;
38513;SDS011;24282;48.400;10.808;2022-07-10T07:13:54;4.32;;;2.25;;
38513;SDS011;24282;48.400;10.808;2022-07-10T07:16:20;2.53;;;1.73;;
38513;SDS011;24282;48.400;10.808;2022-07-10T07:18:52;6.80;;;2.20;;
38513;SDS011;24282;48.400;10.808;2022-07-10T07:21:20;3.80;;;1.50;;
38513;SDS011;24282;48.400;10.808;2022-07-10T07:24:04;3.95;;;1.80;;
38513;SDS011;24282;48.400;10.808;2022-07-10T07:26:30;4.50;;;1.70;;
38513;SDS011;24282;48.400;10.808;2022-07-10T07:28:56;2.38;;;1.83;;
38513;SDS011;24282;48.400;10.808;2022-07-10T07:31:22;4.57;;;1.42;;
38513;SDS011;24282;48.400;10.808;2022-07-10T07:33:48;4.57;;;1.80;;
38513;SDS011;24282;48.400;10.808;2022-07-10T07:36:14;4.15;;;1.75;;
38513;SDS011;24282;48.400;10.808;2022-07-10T07:38:39;3.63;;;1.80;;
38513;SDS011;24282;48.400;10.808;2022-07-10T07:41:05;4.20;;;1.90;;
38513;SDS011;24282;48.400;10.808;2022-07-10T07:43:31;3.25;;;1.30;;
38513;SDS011;24282;48.400;10.808;2022-07-10T07:45:57;4.93;;;1.98;;
38513;SDS011;24282;48.400;10.808;2022-07-10T07:48:23;3.75;;;1.48;;
38513;SDS011;24282;48.400;10.808;2022-07-10T07:50:48;3.58;;;1.50;;
38513;SDS011;24282;48.400;10.808;2022-07-10T07:53:14;2.30;;;1.40;;
38513;SDS011;24282;48.400;10.808;2022-07-10T07:55:40;4.35;;;1.52;;
38513;SDS011;24282;48.400;10.808;2022-07-10T07:58:06;5.22;;;1.75;;
38513;SDS011;24282;48.400;10.808;2022-07-10T08:00:32;3.58;;;1.25;;
38513;SDS011;24282;48.400;10.808;2022-07-10T08:02:58;2.25;;;1.42;;
38513;SDS011;24282;48.400;10.808;2022-07-10T08:05:25;3.05;;;1.60;;
38513;SDS011;24282;48.400;10.808;2022-07-10T08:07:52;3.40;;;1.50;;
38513;SDS011;24282;48.400;10.808;2022-07-10T08:10:20;3.20;;;1.70;;
38513;SDS011;24282;48.400;10.808;2022-07-10T08:12:47;4.68;;;1.48;;
38513;SDS011;24282;48.400;10.808;2022-07-10T08:15:14;3.63;;;1.48;;
38513;SDS011;24282;48.400;10.808;2022-07-10T08:17:42;2.35;;;1.42;;
38513;SDS011;24282;48.400;10.808;2022-07-10T08:20:10;4.15;;;1.58;;
38513;SDS011;24282;48.400;10.808;2022-07-10T08:22:37;2.75;;;1.52;;
38513;SDS011;24282;48.400;10.808;2022-07-10T08:25:03;3.03;;;1.30;;
38513;SDS011;24282;48.400;10.808;2022-07-10T08:27:29;2.70;;;1.10;;
38513;SDS011;24282;48.400;10.808;2022-07-10T08:29:55;4.80;;;1.65;;
38513;SDS011;24282;48.400;10.808;2022-07-10T08:32:21;4.45;;;1.48;;
38513;SDS011;24282;48.400;10.808;2022-07-10T08:34:47;5.30;;;1.05;;
38513;SDS011;24282;48.400;10.808;2022-07-10T08:37:13;2.30;;;1.30;;
38513;SDS011;24282;48.400;10.808;2022-07-10T08:39:39;6.65;;;1.65;;
38513;SDS011;24282;48.400;10.808;2022-07-10T08:42:06;3.40;;;1.38;;
38513;SDS011;24282;48.400;10.808;2022-07-10T08:44:33;2.80;;;1.48;;
38513;SDS011;24282;48.400;10.808;2022-07-10T08:46:59;2.80;;;1.30;;
38513;SDS011;24282;48.400;10.808;2022-07-10T08:49:27;2.15;;;1.10;;
38513;SDS011;24282;48.400;10.808;2022-07-10T08:54:49;3.45;;;0.88;;
38513;SDS011;24282;48.400;10.808;2022-07-10T08:57:15;2.90;;;1.00;;
38513;SDS011;24282;48.400;10.808;2022-07-10T08:59:42;3.60;;;1.38;;
38513;SDS011;24282;48.400;10.808;2022-07-10T09:02:08;2.75;;;1.17;;
38513;SDS011;24282;48.400;10.808;2022-07-10T09:04:34;2.83;;;1.38;;
38513;SDS011;24282;48.400;10.808;2022-07-10T09:06:59;4.57;;;1.40;;
38513;SDS011;24282;48.400;10.808;2022-07-10T09:09:25;3.55;;;1.48;;
38513;SDS011;24282;48.400;10.808;2022-07-10T09:11:55;4.00;;;1.20;;
38513;SDS011;24282;48.400;10.808;2022-07-10T09:14:22;4.22;;;1.50;;
38513;SDS011;24282;48.400;10.808;2022-07-10T09:16:50;2.10;;;0.90;;
38513;SDS011;24282;48.400;10.808;2022-07-10T09:24:44;4.18;;;2.15;;
38513;SDS011;24282;48.400;10.808;2022-07-10T09:27:12;3.10;;;1.23;;
38513;SDS011;24282;48.400;10.808;2022-07-10T09:29:45;3.60;;;1.30;;
38513;SDS011;24282;48.400;10.808;2022-07-10T09:32:12;3.13;;;1.40;;
38513;SDS011;24282;48.400;10.808;2022-07-10T09:34:39;3.22;;;1.02;;
38513;SDS011;24282;48.400;10.808;2022-07-10T09:39:53;2.20;;;0.93;;
38513;SDS011;24282;48.400;10.808;2022-07-10T09:47:39;2.45;;;0.88;;
38513;SDS011;24282;48.400;10.808;2022-07-10T09:50:19;5.32;;;1.35;;
38513;SDS011;24282;48.400;10.808;2022-07-10T09:52:46;1.92;;;0.85;;
38513;SDS011;24282;48.400;10.808;2022-07-10T09:55:13;6.50;;;1.10;;
38513;SDS011;24282;48.400;10.808;2022-07-10T09:57:39;3.83;;;1.20;;
38513;SDS011;24282;48.400;10.808;2022-07-10T10:00:09;2.28;;;0.88;;
38513;SDS011;24282;48.400;10.808;2022-07-10T10:02:36;4.50;;;1.52;;
38513;SDS011;24282;48.400;10.808;2022-07-10T10:05:04;4.47;;;1.35;;
38513;SDS011;24282;48.400;10.808;2022-07-10T10:07:32;1.83;;;0.80;;
38513;SDS011;24282;48.400;10.808;2022-07-10T10:10:02;2.40;;;1.25;;
38513;SDS011;24282;48.400;10.808;2022-07-10T10:15:13;2.72;;;0.98;;
38513;SDS011;24282;48.400;10.808;2022-07-10T10:17:41;3.17;;;0.90;;
38513;SDS011;24282;48.400;10.808;2022-07-10T10:20:07;2.33;;;1.02;;
38513;SDS011;24282;48.400;10.808;2022-07-10T10:22:54;1.50;;;0.88;;
38513;SDS011;24282;48.400;10.808;2022-07-10T10:25:23;3.05;;;0.90;;
38513;SDS011;24282;48.400;10.808;2022-07-10T10:27:49;1.45;;;0.90;;
38513;SDS011;24282;48.400;10.808;2022-07-10T10:30:16;2.40;;;0.90;;
38513;SDS011;24282;48.400;10.808;2022-07-10T10:32:42;3.88;;;0.90;;
38513;SDS011;24282;48.400;10.808;2022-07-10T10:35:08;2.22;;;1.00;;
38513;SDS011;24282;48.400;10.808;2022-07-10T10:37:38;1.48;;;0.70;;
38513;SDS011;24282;48.400;10.808;2022-07-10T10:40:11;4.35;;;1.50;;
38513;SDS011;24282;48.400;10.808;2022-07-10T10:42:58;4.75;;;1.70;;
38513;SDS011;24282;48.400;10.808;2022-07-10T10:45:31;2.40;;;0.70;;
38513;SDS011;24282;48.400;10.808;2022-07-10T10:48:07;2.25;;;1.10;;
38513;SDS011;24282;48.400;10.808;2022-07-10T10:53:21;2.85;;;0.80;;
38513;SDS011;24282;48.400;10.808;2022-07-10T10:56:33;2.35;;;0.70;;
38513;SDS011;24282;48.400;10.808;2022-07-10T10:58:41;3.40;;;1.27;;
38513;SDS011;24282;48.400;10.808;2022-07-10T11:06:39;2.38;;;0.73;;
38513;SDS011;24282;48.400;10.808;2022-07-10T11:11:58;3.63;;;1.42;;
38513;SDS011;24282;48.400;10.808;2022-07-10T11:16:56;2.08;;;0.95;;
38513;SDS011;24282;48.400;10.808;2022-07-10T11:19:23;1.95;;;0.85;;
38513;SDS011;24282;48.400;10.808;2022-07-10T11:25:03;4.00;;;0.90;;
38513;SDS011;24282;48.400;10.808;2022-07-10T11:30:23;4.30;;;0.98;;
38513;SDS011;24282;48.400;10.808;2022-07-10T11:32:49;2.45;;;0.90;;
38513;SDS011;24282;48.400;10.808;2022-07-10T11:35:16;6.22;;;0.82;;
38513;SDS011;24282;48.400;10.808;2022-07-10T11:37:52;2.67;;;0.70;;
38513;SDS011;24282;48.400;10.808;2022-07-10T11:40:18;1.80;;;0.65;;
38513;SDS011;24282;48.400;10.808;2022-07-10T11:45:28;1.98;;;0.80;;
38513;SDS011;24282;48.400;10.808;2022-07-10T11:47:56;2.17;;;0.68;;
38513;SDS011;24282;48.400;10.808;2022-07-10T11:50:23;1.20;;;0.52;;
38513;SDS011;24282;48.400;10.808;2022-07-10T11:52:50;1.58;;;0.60;;
38513;SDS011;24282;48.400;10.808;2022-07-10T11:55:16;2.30;;;0.90;;
38513;SDS011;24282;48.400;10.808;2022-07-10T11:57:43;1.55;;;0.70;;
38513;SDS011;24282;48.400;10.808;2022-07-10T12:00:34;2.83;;;0.90;;
38513;SDS011;24282;48.400;10.808;2022-07-10T12:03:15;2.08;;;0.82;;
38513;SDS011;24282;48.400;10.808;2022-07-10T12:05:45;1.77;;;0.70;;
38513;SDS011;24282;48.400;10.808;2022-07-10T12:08:13;1.70;;;0.70;;
38513;SDS011;24282;48.400;10.808;2022-07-10T12:10:39;1.83;;;0.68;;
38513;SDS011;24282;48.400;10.808;2022-07-10T12:15:38;2.22;;;0.82;;
38513;SDS011;24282;48.400;10.808;2022-07-10T12:18:05;2.38;;;0.73;;
38513;SDS011;24282;48.400;10.808;2022-07-10T12:20:40;2.90;;;0.80;;
38513;SDS011;24282;48.400;10.808;2022-07-10T12:23:10;2.05;;;0.85;;
38513;SDS011;24282;48.400;10.808;2022-07-10T12:25:39;1.73;;;0.60;;
38513;SDS011;24282;48.400;10.808;2022-07-10T12:28:07;2.65;;;0.82;;
38513;SDS011;24282;48.400;10.808;2022-07-10T12:30:40;3.72;;;0.88;;
38513;SDS011;24282;48.400;10.808;2022-07-10T12:35:45;1.38;;;0.70;;
38513;SDS011;24282;48.400;10.808;2022-07-10T12:38:25;1.70;;;0.68;;
38513;SDS011;24282;48.400;10.808;2022-07-10T12:41:08;2.30;;;0.70;;
38513;SDS011;24282;48.400;10.808;2022-07-10T12:43:36;1.70;;;0.75;;
38513;SDS011;24282;48.400;10.808;2022-07-10T12:46:12;2.25;;;0.82;;
38513;SDS011;24282;48.400;10.808;2022-07-10T12:51:32;3.28;;;0.70;;
38513;SDS011;24282;48.400;10.808;2022-07-10T12:53:58;2.53;;;0.80;;
38513;SDS011;24282;48.400;10.808;2022-07-10T12:56:31;2.20;;;0.80;;
38513;SDS011;24282;48.400;10.808;2022-07-10T12:59:11;2.58;;;0.52;;
38513;SDS011;24282;48.400;10.808;2022-07-10T13:01:42;2.17;;;0.70;;
38513;SDS011;24282;48.400;10.808;2022-07-10T13:04:09;1.67;;;0.70;;
38513;SDS011;24282;48.400;10.808;2022-07-10T13:06:36;1.92;;;0.60;;
38513;SDS011;24282;48.400;10.808;2022-07-10T13:09:18;2.45;;;0.80;;
38513;SDS011;24282;48.400;10.808;2022-07-10T13:11:47;2.80;;;0.80;;
38513;SDS011;24282;48.400;10.808;2022-07-10T13:14:14;2.42;;;0.75;;
38513;SDS011;24282;48.400;10.808;2022-07-10T13:16:39;2.67;;;0.82;;
38513;SDS011;24282;48.400;10.808;2022-07-10T13:19:06;1.75;;;0.80;;
38513;SDS011;24282;48.400;10.808;2022-07-10T13:21:31;1.52;;;0.70;;
38513;SDS011;24282;48.400;10.808;2022-07-10T13:23:57;1.50;;;0.63;;
38513;SDS011;24282;48.400;10.808;2022-07-10T13:26:23;1.17;;;0.70;;
38513;SDS011;24282;48.400;10.808;2022-07-10T13:28:49;0.98;;;0.70;;
38513;SDS011;24282;48.400;10.808;2022-07-10T13:31:15;1.55;;;0.50;;
38513;SDS011;24282;48.400;10.808;2022-07-10T13:33:40;2.13;;;0.77;;
38513;SDS011;24282;48.400;10.808;2022-07-10T13:36:06;0.88;;;0.43;;
38513;SDS011;24282;48.400;10.808;2022-07-10T13:38:33;1.58;;;0.52;;
38513;SDS011;24282;48.400;10.808;2022-07-10T13:40:59;1.52;;;0.63;;
38513;SDS011;24282;48.400;10.808;2022-07-10T13:43:25;3.33;;;0.70;;
38513;SDS011;24282;48.400;10.808;2022-07-10T13:45:58;1.98;;;0.65;;
38513;SDS011;24282;48.400;10.808;2022-07-10T13:48:24;2.40;;;0.70;;
38513;SDS011;24282;48.400;10.808;2022-07-10T13:50:51;2.70;;;0.70;;
38513;SDS011;24282;48.400;10.808;2022-07-10T13:53:17;1.23;;;0.50;;
38513;SDS011;24282;48.400;10.808;2022-07-10T13:55:44;1.40;;;0.85;;
38513;SDS011;24282;48.400;10.808;2022-07-10T13:58:10;1.17;;;0.60;;
38513;SDS011;24282;48.400;10.808;2022-07-10T14:00:36;1.83;;;0.68;;
38513;SDS011;24282;48.400;10.808;2022-07-10T14:03:03;2.22;;;0.77;;
38513;SDS011;24282;48.400;10.808;2022-07-10T14:05:29;0.80;;;0.43;;
38513;SDS011;24282;48.400;10.808;2022-07-10T14:07:55;1.60;;;0.63;;
38513;SDS011;24282;48.400;10.808;2022-07-10T14:10:21;1.75;;;0.60;;
38513;SDS011;24282;48.400;10.808;2022-07-10T14:12:47;0.80;;;0.50;;
38513;SDS011;24282;48.400;10.808;2022-07-10T14:15:13;3.47;;;0.63;;
38513;SDS011;24282;48.400;10.808;2022-07-10T14:17:39;1.95;;;0.70;;
38513;SDS011;24282;48.400;10.808;2022-07-10T14:20:05;1.08;;;0.40;;
38513;SDS011;24282;48.400;10.808;2022-07-10T14:22:31;1.42;;;0.60;;
38513;SDS011;24282;48.400;10.808;2022-07-10T14:24:58;3.10;;;0.98;;
38513;SDS011;24282;48.400;10.808;2022-07-10T14:27:25;1.48;;;0.60;;
38513;SDS011;24282;48.400;10.808;2022-07-10T14:29:53;3.00;;;0.70;;
38513;SDS011;24282;48.400;10.808;2022-07-10T14:32:19;2.47;;;0.65;;
38513;SDS011;24282;48.400;10.808;2022-07-10T14:34:45;2.80;;;0.93;;
38513;SDS011;24282;48.400;10.808;2022-07-10T14:37:10;2.20;;;0.60;;
38513;SDS011;24282;48.400;10.808;2022-07-10T14:39:36;1.73;;;0.60;;
38513;SDS011;24282;48.400;10.808;2022-07-10T14:42:03;1.35;;;0.57;;
38513;SDS011;24282;48.400;10.808;2022-07-10T14:44:30;2.47;;;0.70;;
38513;SDS011;24282;48.400;10.808;2022-07-10T14:46:57;1.40;;;0.52;;
38513;SDS011;24282;48.400;10.808;2022-07-10T14:49:23;1.05;;;0.50;;
38513;SDS011;24282;48.400;10.808;2022-07-10T14:51:53;1.48;;;0.45;;
38513;SDS011;24282;48.400;10.808;2022-07-10T14:54:20;2.20;;;0.70;;
38513;SDS011;24282;48.400;10.808;2022-07-10T14:56:46;0.68;;;0.40;;
38513;SDS011;24282;48.400;10.808;2022-07-10T14:59:12;1.50;;;0.45;;
38513;SDS011;24282;48.400;10.808;2022-07-10T15:01:38;0.85;;;0.45;;
38513;SDS011;24282;48.400;10.808;2022-07-10T15:04:07;1.50;;;0.70;;
38513;SDS011;24282;48.400;10.808;2022-07-10T15:06:33;1.98;;;0.70;;
38513;SDS011;24282;48.400;10.808;2022-07-10T15:08:59;0.75;;;0.45;;
38513;SDS011;24282;48.400;10.808;2022-07-10T15:11:24;2.35;;;0.50;;
38513;SDS011;24282;48.400;10.808;2022-07-10T15:13:51;1.63;;;0.60;;
38513;SDS011;24282;48.400;10.808;2022-07-10T15:16:24;2.75;;;0.70;;
38513;SDS011;24282;48.400;10.808;2022-07-10T15:18:53;1.63;;;0.60;;
38513;SDS011;24282;48.400;10.808;2022-07-10T15:21:19;0.77;;;0.60;;
38513;SDS011;24282;48.400;10.808;2022-07-10T15:23:45;1.75;;;0.80;;